Time;durP1;ratioP1;P1;durP2;ratioP2;P2;SDS_P1;SDS_P2;PMS_P1;PMS_P2;Temp;Humidity;BMP_temperature;BMP_pressure;BME280_temperature;BME280_humidity;BME280_pressure;Samples;Min_cycle;Max_cycle;Signal;HPM_P1;HPM_P2
2022/09/04 00:01:47;;;;;;;0.82;0.40;;;;;;;;;;4994187;28;20149;-52
2022/09/04 00:04:24;;;;;;;0.52;0.30;;;;;;;;;;4994142;28;20062;-52
2022/09/04 00:06:57;;;;;;;0.85;0.30;;;;;;;;;;4994173;28;20077;-51
2022/09/04 00:09:31;;;;;;;0.68;0.38;;;;;;;;;;4994112;28;20112;-50
2022/09/04 00:12:04;;;;;;;0.50;0.30;;;;;;;;;;4993990;28;20058;-49
2022/09/04 00:14:36;;;;;;;0.60;0.40;;;;;;;;;;4993886;28;20052;-52
2022/09/04 00:17:08;;;;;;;0.63;0.40;;;;;;;;;;5006173;28;20092;-49
2022/09/04 00:19:39;;;;;;;1.00;0.60;;;;;;;;;;5013621;28;20054;-49
2022/09/04 00:22:19;;;;;;;0.70;0.40;;;;;;;;;;5013076;28;20050;-49
2022/09/04 00:24:51;;;;;;;1.55;0.70;;;;;;;;;;5013423;28;20153;-52
2022/09/04 00:27:21;;;;;;;2.50;1.05;;;;;;;;;;5013007;28;20379;-49
2022/09/04 00:29:51;;;;;;;2.60;1.05;;;;;;;;;;5004313;28;20054;-49
2022/09/04 00:32:21;;;;;;;2.75;1.00;;;;;;;;;;5013500;28;20068;-49
2022/09/04 00:35:04;;;;;;;3.13;1.30;;;;;;;;;;5013297;28;20061;-49
2022/09/04 00:37:37;;;;;;;2.72;1.10;;;;;;;;;;5013641;28;20057;-49
2022/09/04 00:40:07;;;;;;;5.00;1.45;;;;;;;;;;5004861;28;20473;-50
2022/09/04 00:42:53;;;;;;;3.92;1.20;;;;;;;;;;4993742;28;20064;-51
2022/09/04 00:45:21;;;;;;;;;;;;;;;;;;4993980;28;20064;-49
2022/09/04 00:48:03;;;;;;;2.35;0.80;;;;;;;;;;4993462;28;20251;-49
2022/09/04 00:50:49;;;;;;;2.10;0.82;;;;;;;;;;4993391;28;20383;-51
2022/09/04 00:53:33;;;;;;;1.13;0.50;;;;;;;;;;4981473;28;20061;-51
2022/09/04 00:56:17;;;;;;;2.10;0.68;;;;;;;;;;4974235;28;20047;-51
2022/09/04 00:58:55;;;;;;;1.60;0.60;;;;;;;;;;4974259;28;20061;-53
2022/09/04 01:01:22;;;;;;;2.08;0.82;;;;;;;;;;4977508;28;20069;-49
2022/09/04 01:04:00;;;;;;;2.05;0.68;;;;;;;;;;4977768;28;20047;-50
2022/09/04 01:06:31;;;;;;;1.75;0.77;;;;;;;;;;4977745;28;20051;-50
2022/09/04 01:09:23;;;;;;;2.25;0.80;;;;;;;;;;4977951;28;20055;-50
2022/09/04 01:11:55;;;;;;;2.20;0.65;;;;;;;;;;4986197;28;20050;-48
2022/09/04 01:14:32;;;;;;;0.80;0.40;;;;;;;;;;4997232;28;20057;-48
2022/09/04 01:17:06;;;;;;;2.42;0.65;;;;;;;;;;5009004;28;20049;-52
2022/09/04 01:19:43;;;;;;;2.22;0.50;;;;;;;;;;5016760;28;20391;-49
2022/09/04 01:22:21;;;;;;;0.95;0.63;;;;;;;;;;5016292;28;20129;-48
2022/09/04 01:24:57;;;;;;;0.93;0.70;;;;;;;;;;5011848;28;20038;-50
2022/09/04 01:27:28;;;;;;;1.92;0.80;;;;;;;;;;4996964;28;20061;-49
2022/09/04 01:29:59;;;;;;;1.92;0.60;;;;;;;;;;4996916;28;20050;-52
2022/09/04 01:32:32;;;;;;;2.20;0.77;;;;;;;;;;4996487;28;20577;-48
2022/09/04 01:35:02;;;;;;;2.08;0.95;;;;;;;;;;4996775;28;20046;-48
2022/09/04 01:37:35;;;;;;;3.20;1.35;;;;;;;;;;4996428;28;20057;-52
2022/09/04 01:40:12;;;;;;;2.10;1.00;;;;;;;;;;4996381;28;20050;-49
2022/09/04 01:42:44;;;;;;;2.97;0.90;;;;;;;;;;4996239;28;20464;-49
2022/09/04 01:45:12;;;;;;;3.35;1.83;;;;;;;;;;4996253;28;20518;-50
2022/09/04 01:47:45;;;;;;;3.30;1.70;;;;;;;;;;4996558;28;20060;-49
2022/09/04 01:50:18;;;;;;;3.17;1.48;;;;;;;;;;4996297;28;20062;-49
2022/09/04 01:52:48;;;;;;;2.88;1.50;;;;;;;;;;4996230;28;20063;-49
2022/09/04 01:55:19;;;;;;;3.38;1.40;;;;;;;;;;4996052;28;20046;-48
2022/09/04 01:57:54;;;;;;;1.65;0.85;;;;;;;;;;4995797;28;20486;-51
2022/09/04 02:00:23;;;;;;;2.30;1.15;;;;;;;;;;4996247;28;20065;-49
2022/09/04 02:02:55;;;;;;;1.13;0.60;;;;;;;;;;4996299;28;20129;-52
2022/09/04 02:05:25;;;;;;;2.38;0.70;;;;;;;;;;4995916;28;20058;-51
2022/09/04 02:08:01;;;;;;;2.72;0.73;;;;;;;;;;4996443;28;20065;-49
2022/09/04 02:10:36;;;;;;;1.52;0.60;;;;;;;;;;4995983;28;20050;-49
2022/09/04 02:13:14;;;;;;;2.15;0.50;;;;;;;;;;4995740;28;20058;-51
2022/09/04 02:15:43;;;;;;;2.30;0.73;;;;;;;;;;4997458;28;20124;-51
2022/09/04 02:18:18;;;;;;;2.75;0.90;;;;;;;;;;5015357;28;20115;-49
2022/09/04 02:20:51;;;;;;;1.30;0.65;;;;;;;;;;5013037;28;20061;-52
2022/09/04 02:23:23;;;;;;;2.17;0.70;;;;;;;;;;4995441;28;20058;-51
2022/09/04 02:25:53;;;;;;;3.03;0.77;;;;;;;;;;4995874;28;20054;-50
2022/09/04 02:28:32;;;;;;;3.13;0.80;;;;;;;;;;4996141;28;20046;-48
2022/09/04 02:31:05;;;;;;;2.80;0.55;;;;;;;;;;4995177;28;20455;-48
2022/09/04 02:33:37;;;;;;;1.13;0.70;;;;;;;;;;4995566;28;20061;-48
2022/09/04 02:36:12;;;;;;;0.75;0.32;;;;;;;;;;4995792;28;20054;-49
2022/09/04 02:38:46;;;;;;;0.93;0.60;;;;;;;;;;4995700;28;20383;-49
2022/09/04 02:41:18;;;;;;;2.33;0.70;;;;;;;;;;4995378;28;20062;-50
2022/09/04 02:43:56;;;;;;;1.77;0.65;;;;;;;;;;4995184;28;20471;-48
2022/09/04 02:46:26;;;;;;;1.73;0.98;;;;;;;;;;4995448;28;20056;-48
2022/09/04 02:49:17;;;;;;;1.73;0.65;;;;;;;;;;4995396;28;20050;-50
2022/09/04 02:51:54;;;;;;;1.52;0.60;;;;;;;;;;4994705;28;20066;-51
2022/09/04 02:54:38;;;;;;;1.42;0.50;;;;;;;;;;4975134;28;20458;-49
2022/09/04 02:57:10;;;;;;;0.88;0.55;;;;;;;;;;4975794;28;20053;-49
2022/09/04 02:59:46;;;;;;;2.95;0.60;;;;;;;;;;4975989;28;20062;-49
2022/09/04 03:02:20;;;;;;;1.48;0.68;;;;;;;;;;4975987;28;20146;-50
2022/09/04 03:04:51;;;;;;;1.10;0.60;;;;;;;;;;4975746;28;20089;-49
2022/09/04 03:07:21;;;;;;;0.98;0.60;;;;;;;;;;4975724;28;20065;-50
2022/09/04 03:09:50;;;;;;;1.33;0.63;;;;;;;;;;4975431;28;20462;-51
2022/09/04 03:12:27;;;;;;;2.45;0.50;;;;;;;;;;4987382;28;20054;-49
2022/09/04 03:15:01;;;;;;;2.22;0.70;;;;;;;;;;4994938;28;20046;-51
2022/09/04 03:17:32;;;;;;;1.38;0.70;;;;;;;;;;5004477;28;20062;-52
2022/09/04 03:20:03;;;;;;;1.95;0.60;;;;;;;;;;4994801;28;20655;-52
2022/09/04 03:22:32;;;;;;;1.70;0.60;;;;;;;;;;4993590;28;20054;-50
2022/09/04 03:25:09;;;;;;;2.53;0.73;;;;;;;;;;4994736;28;20050;-50
2022/09/04 03:27:36;;;;;;;0.77;0.40;;;;;;;;;;4994850;28;20133;-49
2022/09/04 03:30:10;;;;;;;1.23;0.57;;;;;;;;;;4994561;28;20050;-52
2022/09/04 03:32:43;;;;;;;1.70;0.70;;;;;;;;;;4994550;28;20078;-50
2022/09/04 03:35:16;;;;;;;3.00;0.70;;;;;;;;;;4994166;28;20049;-50
2022/09/04 03:37:59;;;;;;;1.17;0.50;;;;;;;;;;4993904;28;20104;-48
2022/09/04 03:40:35;;;;;;;1.73;0.52;;;;;;;;;;4994206;28;20092;-52
2022/09/04 03:43:21;;;;;;;2.95;0.50;;;;;;;;;;4994337;28;20061;-50
2022/09/04 03:45:54;;;;;;;1.95;0.70;;;;;;;;;;4973793;28;20054;-50
2022/09/04 03:48:30;;;;;;;1.67;0.40;;;;;;;;;;4994362;28;20130;-52
2022/09/04 03:51:02;;;;;;;1.98;0.80;;;;;;;;;;4994358;28;20105;-50
2022/09/04 03:53:32;;;;;;;1.55;0.63;;;;;;;;;;4981045;28;20050;-51
2022/09/04 03:56:24;;;;;;;1.25;0.57;;;;;;;;;;4974677;28;20456;-52
2022/09/04 03:58:58;;;;;;;2.50;0.50;;;;;;;;;;4964561;28;20054;-49
2022/09/04 04:01:35;;;;;;;4.40;1.15;;;;;;;;;;4974680;28;20359;-50
2022/09/04 04:04:15;;;;;;;2.15;0.43;;;;;;;;;;4974560;28;20531;-49
2022/09/04 04:06:46;;;;;;;4.00;0.95;;;;;;;;;;4974520;28;20569;-49
2022/09/04 04:09:45;;;;;;;1.88;0.60;;;;;;;;;;4974495;28;20066;-49
2022/09/04 04:12:25;;;;;;;1.83;0.70;;;;;;;;;;4985852;28;20058;-49
2022/09/04 04:15:02;;;;;;;5.65;0.73;;;;;;;;;;4993482;28;20455;-52
2022/09/04 04:17:47;;;;;;;2.72;0.95;;;;;;;;;;5009597;28;20064;-50
2022/09/04 04:20:23;;;;;;;1.33;0.70;;;;;;;;;;5013655;28;20077;-52
2022/09/04 04:22:59;;;;;;;1.52;0.90;;;;;;;;;;5013265;28;20068;-50
2022/09/04 04:25:39;;;;;;;2.03;0.70;;;;;;;;;;5013693;28;20115;-48
2022/09/04 04:28:18;;;;;;;1.42;0.63;;;;;;;;;;5011189;28;20082;-52
2022/09/04 04:30:48;;;;;;;2.25;0.70;;;;;;;;;;4993640;28;20530;-51
2022/09/04 04:33:27;;;;;;;2.97;0.93;;;;;;;;;;4994147;28;20081;-50
2022/09/04 04:35:59;;;;;;;1.35;0.70;;;;;;;;;;4997744;28;20054;-50
2022/09/04 04:38:38;;;;;;;2.30;0.80;;;;;;;;;;4997876;28;20133;-48
2022/09/04 04:41:13;;;;;;;1.85;0.80;;;;;;;;;;4997934;28;20085;-48
2022/09/04 04:43:48;;;;;;;3.80;1.02;;;;;;;;;;4997605;28;20456;-52
2022/09/04 04:46:19;;;;;;;2.50;1.10;;;;;;;;;;4997998;28;20050;-49
2022/09/04 04:49:04;;;;;;;2.28;1.13;;;;;;;;;;4997357;28;20293;-48
2022/09/04 04:51:54;;;;;;;2.00;1.17;;;;;;;;;;4997316;28;20046;-49
2022/09/04 04:54:35;;;;;;;2.13;0.95;;;;;;;;;;4968806;28;20050;-48
2022/09/04 04:57:08;;;;;;;2.40;1.00;;;;;;;;;;4978025;28;20046;-48
2022/09/04 04:59:39;;;;;;;3.03;1.17;;;;;;;;;;4977457;28;20062;-49
2022/09/04 05:02:09;;;;;;;1.83;0.75;;;;;;;;;;4977995;28;20085;-52
2022/09/04 05:04:41;;;;;;;2.65;1.08;;;;;;;;;;4977861;28;20047;-48
2022/09/04 05:07:13;;;;;;;1.63;0.68;;;;;;;;;;4977724;28;20055;-48
2022/09/04 05:09:44;;;;;;;1.75;0.80;;;;;;;;;;4980752;28;20057;-49
2022/09/04 05:12:16;;;;;;;2.10;0.65;;;;;;;;;;4997171;28;20069;-48
2022/09/04 05:14:48;;;;;;;3.10;0.63;;;;;;;;;;4997150;28;20042;-48
2022/09/04 05:17:20;;;;;;;1.00;0.70;;;;;;;;;;5011096;28;20467;-48
2022/09/04 05:19:51;;;;;;;1.15;0.50;;;;;;;;;;5016891;28;20050;-48
2022/09/04 05:22:24;;;;;;;1.70;0.55;;;;;;;;;;5016611;28;20060;-49
2022/09/04 05:25:02;;;;;;;1.35;0.70;;;;;;;;;;5016589;28;20054;-50
2022/09/04 05:27:45;;;;;;;1.88;0.40;;;;;;;;;;5016754;28;20054;-51
2022/09/04 05:30:15;;;;;;;2.13;0.50;;;;;;;;;;4994445;28;20081;-48
2022/09/04 05:32:47;;;;;;;2.25;0.57;;;;;;;;;;4996950;28;20054;-49
2022/09/04 05:35:20;;;;;;;2.33;0.80;;;;;;;;;;4996928;28;20050;-50
2022/09/04 05:37:51;;;;;;;1.02;0.50;;;;;;;;;;4996583;28;20569;-48
2022/09/04 05:40:23;;;;;;;1.75;0.40;;;;;;;;;;4995875;28;20502;-52
2022/09/04 05:43:01;;;;;;;1.40;0.50;;;;;;;;;;4996917;28;20050;-50
2022/09/04 05:45:35;;;;;;;0.95;0.50;;;;;;;;;;4995668;28;20050;-49
2022/09/04 05:48:10;;;;;;;1.50;0.50;;;;;;;;;;4996553;28;20376;-50
2022/09/04 05:50:47;;;;;;;2.35;0.50;;;;;;;;;;4996840;28;20061;-49
2022/09/04 05:53:24;;;;;;;0.55;0.40;;;;;;;;;;4985448;28;20061;-50
2022/09/04 05:56:02;;;;;;;1.23;0.50;;;;;;;;;;4976961;28;20050;-49
2022/09/04 05:58:48;;;;;;;2.35;0.60;;;;;;;;;;4977089;28;20142;-50
2022/09/04 06:01:22;;;;;;;2.30;0.63;;;;;;;;;;4976995;28;20059;-51
2022/09/04 06:04:08;;;;;;;2.72;0.80;;;;;;;;;;4977041;28;20066;-49
2022/09/04 06:06:39;;;;;;;2.22;0.47;;;;;;;;;;4985639;28;20066;-48
2022/09/04 06:09:25;;;;;;;1.20;0.47;;;;;;;;;;4996162;28;20498;-50
2022/09/04 06:12:04;;;;;;;0.55;0.35;;;;;;;;;;4995936;28;20515;-49
2022/09/04 06:14:53;;;;;;;1.05;0.43;;;;;;;;;;4995892;28;20117;-48
2022/09/04 06:17:26;;;;;;;1.00;0.40;;;;;;;;;;5010634;28;20489;-51
2022/09/04 06:20:11;;;;;;;1.90;0.50;;;;;;;;;;5015747;28;20054;-52
2022/09/04 06:22:50;;;;;;;0.80;0.50;;;;;;;;;;5015154;28;20061;-50
2022/09/04 06:25:24;;;;;;;1.88;0.50;;;;;;;;;;5015322;28;20050;-50
2022/09/04 06:28:04;;;;;;;0.90;0.47;;;;;;;;;;5015147;28;20064;-52
2022/09/04 06:30:36;;;;;;;1.10;0.40;;;;;;;;;;4995354;28;20054;-50
2022/09/04 06:33:11;;;;;;;0.80;0.40;;;;;;;;;;4995508;28;20098;-49
2022/09/04 06:35:39;;;;;;;;;;;;;;;;;;4995747;28;20387;-49
2022/09/04 06:38:26;;;;;;;2.03;0.50;;;;;;;;;;4995783;28;19925;-49
2022/09/04 06:40:58;;;;;;;1.67;0.40;;;;;;;;;;4995448;28;20051;-50
2022/09/04 06:43:32;;;;;;;2.63;0.60;;;;;;;;;;4995766;28;20050;-49
2022/09/04 06:46:05;;;;;;;5.50;0.40;;;;;;;;;;4995439;28;20467;-51
2022/09/04 06:48:42;;;;;;;0.77;0.40;;;;;;;;;;4995569;28;20116;-50
2022/09/04 06:51:15;;;;;;;1.10;0.40;;;;;;;;;;4995500;28;20068;-48
2022/09/04 06:53:47;;;;;;;2.83;0.40;;;;;;;;;;4980314;28;20057;-51
2022/09/04 06:56:23;;;;;;;1.13;0.50;;;;;;;;;;4975670;28;20051;-49
2022/09/04 06:59:08;;;;;;;1.17;0.40;;;;;;;;;;4974851;28;20066;-49
2022/09/04 07:01:41;;;;;;;1.70;0.43;;;;;;;;;;4975494;28;20358;-52
2022/09/04 07:04:13;;;;;;;1.05;0.68;;;;;;;;;;4994844;28;20169;-51
2022/09/04 07:06:48;;;;;;;1.42;0.40;;;;;;;;;;4995181;28;20050;-49
2022/09/04 07:09:17;;;;;;;1.08;0.40;;;;;;;;;;4995315;28;20061;-49
2022/09/04 07:11:55;;;;;;;1.08;0.30;;;;;;;;;;4995003;28;20050;-52
2022/09/04 07:14:37;;;;;;;1.23;0.40;;;;;;;;;;4995109;28;20058;-49
2022/09/04 07:17:08;;;;;;;0.60;0.30;;;;;;;;;;5007602;28;20055;-50
2022/09/04 07:19:54;;;;;;;3.72;0.40;;;;;;;;;;5014121;28;20370;-50
2022/09/04 07:22:39;;;;;;;0.47;0.38;;;;;;;;;;5001649;28;20053;-50
2022/09/04 07:25:21;;;;;;;0.35;0.30;;;;;;;;;;5014408;28;20069;-49
2022/09/04 07:28:11;;;;;;;0.77;0.30;;;;;;;;;;5014311;28;20093;-52
2022/09/04 07:30:44;;;;;;;1.73;0.60;;;;;;;;;;4993560;28;20062;-49
2022/09/04 07:33:14;;;;;;;2.03;0.50;;;;;;;;;;4994725;28;20082;-52
2022/09/04 07:35:44;;;;;;;2.05;0.40;;;;;;;;;;4994627;28;20046;-50
2022/09/04 07:38:15;;;;;;;1.58;0.50;;;;;;;;;;4994587;28;20056;-51
2022/09/04 07:40:43;;;;;;;0.77;0.32;;;;;;;;;;4994120;28;20065;-52
2022/09/04 07:43:15;;;;;;;2.30;0.40;;;;;;;;;;4994456;28;20157;-49
2022/09/04 07:45:49;;;;;;;2.20;0.40;;;;;;;;;;4993912;28;20065;-48
2022/09/04 07:48:16;;;;;;;;;;;;;;;;;;4994283;28;20081;-49
2022/09/04 07:50:50;;;;;;;1.25;0.28;;;;;;;;;;4994135;28;19932;-48
2022/09/04 07:53:24;;;;;;;0.80;0.30;;;;;;;;;;4993628;28;20058;-52
2022/09/04 07:55:52;;;;;;;0.93;0.38;;;;;;;;;;4994187;28;20046;-48
2022/09/04 07:58:37;;;;;;;1.58;0.40;;;;;;;;;;4993208;28;20069;-51
2022/09/04 08:01:25;;;;;;;0.30;0.20;;;;;;;;;;4993884;28;20140;-50
2022/09/04 08:04:06;;;;;;;1.40;0.40;;;;;;;;;;4992507;28;20065;-49
2022/09/04 08:06:36;;;;;;;1.67;0.35;;;;;;;;;;4991018;28;20436;-50
2022/09/04 08:09:14;;;;;;;2.95;0.43;;;;;;;;;;4993591;28;20117;-52
2022/09/04 08:11:51;;;;;;;1.88;0.38;;;;;;;;;;4993610;28;20080;-48
2022/09/04 08:14:21;;;;;;;1.63;0.30;;;;;;;;;;4988221;28;20065;-51
2022/09/04 08:16:54;;;;;;;0.98;0.30;;;;;;;;;;4993804;28;20157;-48
2022/09/04 08:19:34;;;;;;;0.35;0.25;;;;;;;;;;4993238;28;20065;-50
2022/09/04 08:22:04;;;;;;;1.25;0.30;;;;;;;;;;4993120;28;20471;-46
2022/09/04 08:24:44;;;;;;;1.67;0.50;;;;;;;;;;4993316;28;20050;-49
2022/09/04 08:27:19;;;;;;;0.63;0.30;;;;;;;;;;4993510;28;20076;-49
2022/09/04 08:29:53;;;;;;;1.70;0.32;;;;;;;;;;5000181;28;20052;-51
2022/09/04 08:32:33;;;;;;;0.75;0.20;;;;;;;;;;5013280;28;20053;-49
2022/09/04 08:35:07;;;;;;;3.47;0.55;;;;;;;;;;5013219;28;20050;-51
2022/09/04 08:37:39;;;;;;;2.10;0.30;;;;;;;;;;5013267;28;20055;-52
2022/09/04 08:40:24;;;;;;;1.40;0.50;;;;;;;;;;5004665;28;20056;-48
2022/09/04 08:42:58;;;;;;;1.33;0.27;;;;;;;;;;4993409;28;20065;-49
2022/09/04 08:45:51;;;;;;;2.90;0.28;;;;;;;;;;4993570;28;20293;-49
2022/09/04 08:48:42;;;;;;;1.05;0.40;;;;;;;;;;4983628;28;20062;-49
2022/09/04 08:51:28;;;;;;;1.48;0.38;;;;;;;;;;4993427;28;20100;-49
2022/09/04 08:54:03;;;;;;;1.25;0.20;;;;;;;;;;4976661;28;20078;-50
2022/09/04 08:56:36;;;;;;;0.50;0.28;;;;;;;;;;4991883;28;20046;-48
2022/09/04 08:59:21;;;;;;;3.03;0.40;;;;;;;;;;4993877;28;20058;-49
2022/09/04 09:02:11;;;;;;;0.43;0.20;;;;;;;;;;4992949;28;20490;-50
2022/09/04 09:04:58;;;;;;;0.93;0.40;;;;;;;;;;4993275;28;20066;-49
2022/09/04 09:07:41;;;;;;;4.20;0.45;;;;;;;;;;5011777;28;20612;-49
2022/09/04 09:10:34;;;;;;;0.80;0.40;;;;;;;;;;5009354;28;20064;-49
2022/09/04 09:13:34;;;;;;;0.68;0.25;;;;;;;;;;4994378;28;20391;-49
2022/09/04 09:16:26;;;;;;;0.95;0.32;;;;;;;;;;4952280;29;20051;-50
2022/09/04 09:19:08;;;;;;;2.15;0.30;;;;;;;;;;4929020;29;20063;-53
2022/09/04 09:21:42;;;;;;;0.90;0.30;;;;;;;;;;4984340;28;20069;-49
2022/09/04 09:24:21;;;;;;;1.38;0.43;;;;;;;;;;4996524;28;20116;-50
2022/09/04 09:27:02;;;;;;;1.70;0.50;;;;;;;;;;4996731;28;20060;-49
2022/09/04 09:29:42;;;;;;;0.55;0.20;;;;;;;;;;4996840;28;20060;-51
2022/09/04 09:32:27;;;;;;;1.45;0.20;;;;;;;;;;4996847;28;20050;-52
2022/09/04 09:35:20;;;;;;;0.32;0.20;;;;;;;;;;4997047;28;20105;-52
2022/09/04 09:38:05;;;;;;;0.90;0.30;;;;;;;;;;4942981;28;20285;-52
2022/09/04 09:40:54;;;;;;;0.88;0.20;;;;;;;;;;4996049;28;20058;-48
2022/09/04 09:43:32;;;;;;;1.90;0.30;;;;;;;;;;4996750;28;20475;-52
2022/09/04 09:46:12;;;;;;;0.57;0.20;;;;;;;;;;4996794;28;20050;-50
2022/09/04 09:48:55;;;;;;;1.40;0.20;;;;;;;;;;4996737;28;20054;-50
2022/09/04 09:51:33;;;;;;;2.72;0.55;;;;;;;;;;4987441;28;20054;-48
2022/09/04 09:54:19;;;;;;;1.85;0.30;;;;;;;;;;4996496;28;20132;-49
2022/09/04 09:57:09;;;;;;;0.57;0.30;;;;;;;;;;4996260;28;20341;-51
2022/09/04 09:59:57;;;;;;;1.17;0.25;;;;;;;;;;4987249;28;20125;-49
2022/09/04 10:02:46;;;;;;;0.80;0.28;;;;;;;;;;4996472;28;20062;-49
2022/09/04 10:05:36;;;;;;;0.65;0.25;;;;;;;;;;4996021;28;20717;-52
2022/09/04 10:08:20;;;;;;;2.47;0.40;;;;;;;;;;4996480;28;20053;-51
2022/09/04 10:11:04;;;;;;;0.57;0.40;;;;;;;;;;4995911;28;20057;-52
2022/09/04 10:13:47;;;;;;;2.72;0.40;;;;;;;;;;4976929;28;20146;-50
2022/09/04 10:16:35;;;;;;;0.28;0.20;;;;;;;;;;4975784;28;20042;-51
2022/09/04 10:19:18;;;;;;;0.30;0.22;;;;;;;;;;5015921;28;20064;-50
2022/09/04 10:22:04;;;;;;;1.20;0.40;;;;;;;;;;5015591;28;20057;-49
2022/09/04 10:24:58;;;;;;;0.55;0.30;;;;;;;;;;5015024;28;20071;-49
2022/09/04 10:27:45;;;;;;;0.88;0.30;;;;;;;;;;4969896;28;20136;-50
2022/09/04 10:30:15;;;;;;;0.60;0.38;;;;;;;;;;4995765;28;20357;-50
2022/09/04 10:33:03;;;;;;;2.03;0.30;;;;;;;;;;4995720;28;20062;-53
2022/09/04 10:35:42;;;;;;;1.50;0.20;;;;;;;;;;4995508;28;20534;-50
2022/09/04 10:38:27;;;;;;;0.47;0.30;;;;;;;;;;4995974;28;20056;-50
2022/09/04 10:40:52;;;;;;;;;;;;;;;;;;4956264;28;20062;-49
2022/09/04 10:43:27;;;;;;;0.50;0.40;;;;;;;;;;4976278;28;20283;-51
2022/09/04 10:45:59;;;;;;;1.33;0.38;;;;;;;;;;4976128;28;20047;-52
2022/09/04 10:48:44;;;;;;;0.65;0.30;;;;;;;;;;4989712;28;20061;-50
2022/09/04 10:51:27;;;;;;;3.30;0.30;;;;;;;;;;4995540;28;20046;-50
2022/09/04 10:54:08;;;;;;;0.70;0.30;;;;;;;;;;4995600;28;20124;-51
2022/09/04 10:56:41;;;;;;;0.70;0.30;;;;;;;;;;4991944;28;20129;-52
2022/09/04 10:59:28;;;;;;;0.82;0.35;;;;;;;;;;4995055;28;20519;-48
2022/09/04 11:02:14;;;;;;;1.63;0.30;;;;;;;;;;4995030;28;20113;-49
2022/09/04 11:04:53;;;;;;;0.85;0.22;;;;;;;;;;4962516;28;20076;-48
2022/09/04 11:07:34;;;;;;;1.65;0.40;;;;;;;;;;4995356;28;20065;-48
2022/09/04 11:10:19;;;;;;;1.15;0.20;;;;;;;;;;4995207;28;20054;-49
2022/09/04 11:13:03;;;;;;;0.52;0.32;;;;;;;;;;4994531;28;20054;-52
2022/09/04 11:15:40;;;;;;;2.42;0.30;;;;;;;;;;4994826;28;20058;-48
2022/09/04 11:18:19;;;;;;;0.82;0.30;;;;;;;;;;4975608;28;20043;-49
2022/09/04 11:21:06;;;;;;;0.40;0.30;;;;;;;;;;4975236;28;20664;-48
2022/09/04 11:23:49;;;;;;;7.30;0.57;;;;;;;;;;4975080;28;20059;-48
2022/09/04 11:26:35;;;;;;;7.53;0.45;;;;;;;;;;4975046;28;20471;-51
2022/09/04 11:29:01;;;;;;;;;;;;;;;;;;4984765;28;20054;-48
2022/09/04 11:31:40;;;;;;;0.63;0.30;;;;;;;;;;4994264;28;20262;-49
2022/09/04 11:34:38;;;;;;;2.92;0.38;;;;;;;;;;4994500;28;20145;-48
2022/09/04 11:37:29;;;;;;;0.75;0.30;;;;;;;;;;4994583;28;20050;-48
2022/09/04 11:40:22;;;;;;;0.40;0.20;;;;;;;;;;4994511;28;20046;-49
2022/09/04 11:42:57;;;;;;;0.45;0.20;;;;;;;;;;4993966;28;20490;-50
2022/09/04 11:45:25;;;;;;;;;;;;;;;;;;4994696;28;20479;-50
2022/09/04 11:48:09;;;;;;;33.10;1.90;;;;;;;;;;4994392;28;19933;-52
2022/09/04 11:50:44;;;;;;;1.58;0.30;;;;;;;;;;4994542;28;20054;-50
2022/09/04 11:53:29;;;;;;;1.25;0.32;;;;;;;;;;4994388;28;20047;-49
2022/09/04 11:56:17;;;;;;;0.10;0.10;;;;;;;;;;4994390;28;20054;-48
2022/09/04 11:58:56;;;;;;;0.47;0.28;;;;;;;;;;4961419;28;20133;-52
2022/09/04 12:01:28;;;;;;;1.58;0.30;;;;;;;;;;4994181;28;20054;-49
2022/09/04 12:04:05;;;;;;;1.63;0.40;;;;;;;;;;4994068;28;20176;-49
2022/09/04 12:06:38;;;;;;;0.40;0.20;;;;;;;;;;4993672;28;20471;-52
2022/09/04 12:09:28;;;;;;;1.02;0.40;;;;;;;;;;4993974;28;20061;-49
2022/09/04 12:12:21;;;;;;;0.90;0.20;;;;;;;;;;4914842;29;20056;-49
2022/09/04 12:15:08;;;;;;;0.60;0.38;;;;;;;;;;4911502;29;20056;-50
2022/09/04 12:17:48;;;;;;;1.45;0.35;;;;;;;;;;4913888;29;20393;-48
2022/09/04 12:20:36;;;;;;;0.68;0.25;;;;;;;;;;4910262;29;20059;-52
2022/09/04 12:23:17;;;;;;;0.40;0.30;;;;;;;;;;4955023;28;20058;-48
2022/09/04 12:26:00;;;;;;;1.15;0.30;;;;;;;;;;4990132;28;20162;-48
2022/09/04 12:28:48;;;;;;;13.55;0.70;;;;;;;;;;4985538;28;20459;-49
2022/09/04 12:31:30;;;;;;;0.40;0.20;;;;;;;;;;4983024;28;20054;-49
2022/09/04 12:34:15;;;;;;;0.40;0.20;;;;;;;;;;4950880;28;20054;-49
2022/09/04 12:36:58;;;;;;;1.30;0.40;;;;;;;;;;4993070;28;20050;-51
2022/09/04 12:39:42;;;;;;;0.32;0.10;;;;;;;;;;4993083;28;20078;-50
2022/09/04 12:42:12;;;;;;;1.50;0.40;;;;;;;;;;4993911;28;20062;-51
2022/09/04 12:44:43;;;;;;;1.15;0.30;;;;;;;;;;4993641;28;20060;-50
2022/09/04 12:47:20;;;;;;;6.85;0.52;;;;;;;;;;4993678;28;20050;-51
2022/09/04 12:49:57;;;;;;;5.85;0.60;;;;;;;;;;4993441;28;20089;-48
2022/09/04 12:52:30;;;;;;;0.65;0.25;;;;;;;;;;4993301;28;20137;-48
2022/09/04 12:55:03;;;;;;;0.73;0.22;;;;;;;;;;4993710;28;20148;-51
2022/09/04 12:57:35;;;;;;;2.05;0.50;;;;;;;;;;4997573;28;20107;-51
2022/09/04 13:00:06;;;;;;;0.57;0.20;;;;;;;;;;4997699;28;20046;-48
2022/09/04 13:02:37;;;;;;;1.67;0.40;;;;;;;;;;4997377;28;20050;-48
2022/09/04 13:05:12;;;;;;;14.52;1.67;;;;;;;;;;4997544;28;20057;-48
2022/09/04 13:07:44;;;;;;;0.77;0.32;;;;;;;;;;4997285;28;20042;-48
2022/09/04 13:10:18;;;;;;;0.73;0.40;;;;;;;;;;4997555;28;20066;-48
2022/09/04 13:12:48;;;;;;;1.10;0.50;;;;;;;;;;4997234;28;20069;-49
2022/09/04 13:15:21;;;;;;;0.93;0.50;;;;;;;;;;4997322;28;20064;-49
2022/09/04 13:17:51;;;;;;;4.75;0.77;;;;;;;;;;5015536;28;20064;-48
2022/09/04 13:20:24;;;;;;;3.55;0.60;;;;;;;;;;5016355;28;20115;-48
2022/09/04 13:22:55;;;;;;;2.42;1.08;;;;;;;;;;5016418;28;20054;-48
2022/09/04 13:25:28;;;;;;;2.78;0.60;;;;;;;;;;5016762;28;20065;-49
2022/09/04 13:28:02;;;;;;;0.60;0.30;;;;;;;;;;5015352;28;20434;-50
2022/09/04 13:30:29;;;;;;;0.68;0.38;;;;;;;;;;4997031;28;20105;-51
2022/09/04 13:33:03;;;;;;;2.42;0.50;;;;;;;;;;4996818;28;20054;-50
2022/09/04 13:35:57;;;;;;;2.63;0.70;;;;;;;;;;4996679;28;20050;-48
2022/09/04 13:38:32;;;;;;;1.05;0.30;;;;;;;;;;4983032;28;20045;-50
2022/09/04 13:41:19;;;;;;;0.98;0.40;;;;;;;;;;4996754;28;20062;-51
2022/09/04 13:43:59;;;;;;;0.50;0.30;;;;;;;;;;4990268;28;20054;-48
2022/09/04 13:46:29;;;;;;;2.97;0.80;;;;;;;;;;4996755;28;20062;-51
2022/09/04 13:48:57;;;;;;;3.72;0.50;;;;;;;;;;4996630;28;20058;-52
2022/09/04 13:51:28;;;;;;;0.93;0.40;;;;;;;;;;4996626;28;20061;-50
2022/09/04 13:54:00;;;;;;;0.70;0.25;;;;;;;;;;4996392;28;20088;-50
2022/09/04 13:56:29;;;;;;;0.55;0.30;;;;;;;;;;4996150;28;20355;-51
2022/09/04 13:58:59;;;;;;;2.45;0.40;;;;;;;;;;4995123;28;20460;-49
2022/09/04 14:01:28;;;;;;;0.85;0.38;;;;;;;;;;4996443;28;20054;-50
2022/09/04 14:03:57;;;;;;;0.65;0.30;;;;;;;;;;4995861;28;20062;-48
2022/09/04 14:06:24;;;;;;;2.33;0.43;;;;;;;;;;4995791;28;20061;-49
2022/09/04 14:08:52;;;;;;;1.75;0.52;;;;;;;;;;4996270;28;20062;-49
2022/09/04 14:11:39;;;;;;;0.88;0.55;;;;;;;;;;4996215;28;20113;-50
2022/09/04 14:14:13;;;;;;;2.53;0.95;;;;;;;;;;4992555;28;20057;-50
2022/09/04 14:16:42;;;;;;;0.87;0.40;;;;;;;;;;5005585;28;20058;-49
2022/09/04 14:19:18;;;;;;;1.75;0.40;;;;;;;;;;5015639;28;20057;-52
2022/09/04 14:22:01;;;;;;;1.17;0.50;;;;;;;;;;5015269;28;20482;-52
2022/09/04 14:24:31;;;;;;;0.70;0.30;;;;;;;;;;5014883;28;20069;-49
2022/09/04 14:27:03;;;;;;;2.25;0.70;;;;;;;;;;5015173;28;20057;-49
2022/09/04 14:29:36;;;;;;;0.77;0.40;;;;;;;;;;5001325;28;20456;-50
2022/09/04 14:32:09;;;;;;;6.50;2.72;;;;;;;;;;4995092;28;20050;-49
2022/09/04 14:34:39;;;;;;;1.25;0.75;;;;;;;;;;4995777;28;20046;-49
2022/09/04 14:37:12;;;;;;;0.90;0.40;;;;;;;;;;4995023;28;20387;-49
2022/09/04 14:39:41;;;;;;;1.95;0.57;;;;;;;;;;4994869;28;20531;-49
2022/09/04 14:42:15;;;;;;;1.33;0.32;;;;;;;;;;4995203;28;20050;-51
2022/09/04 14:44:54;;;;;;;0.80;0.17;;;;;;;;;;4995513;28;20058;-48
2022/09/04 14:47:25;;;;;;;2.42;0.50;;;;;;;;;;4995376;28;20046;-49
2022/09/04 14:49:54;;;;;;;4.32;0.70;;;;;;;;;;4995462;28;20070;-49
2022/09/04 14:52:22;;;;;;;1.05;0.40;;;;;;;;;;4995142;28;20448;-52
2022/09/04 14:54:52;;;;;;;2.80;0.40;;;;;;;;;;4995314;28;20116;-52
2022/09/04 14:57:21;;;;;;;1.55;0.40;;;;;;;;;;4995616;28;20046;-50
2022/09/04 14:59:52;;;;;;;10.07;1.00;;;;;;;;;;4994919;28;20486;-48
2022/09/04 15:02:22;;;;;;;1.40;0.30;;;;;;;;;;4995259;28;20112;-49
2022/09/04 15:04:50;;;;;;;1.13;0.40;;;;;;;;;;4994693;28;20054;-48
2022/09/04 15:07:23;;;;;;;1.00;0.40;;;;;;;;;;4994977;28;20138;-48
2022/09/04 15:09:50;;;;;;;2.15;0.55;;;;;;;;;;4995248;28;20112;-52
2022/09/04 15:12:19;;;;;;;0.57;0.30;;;;;;;;;;4995094;28;20054;-52
2022/09/04 15:14:48;;;;;;;1.65;0.50;;;;;;;;;;4994792;28;20058;-48
2022/09/04 15:17:24;;;;;;;1.55;0.88;;;;;;;;;;5008712;28;20060;-49
2022/09/04 15:19:53;;;;;;;1.58;0.57;;;;;;;;;;5013691;28;20108;-48
2022/09/04 15:22:22;;;;;;;1.70;0.38;;;;;;;;;;5014008;28;20132;-48
2022/09/04 15:24:52;;;;;;;1.00;0.40;;;;;;;;;;5014120;28;20745;-48
2022/09/04 15:27:22;;;;;;;0.47;0.20;;;;;;;;;;5014446;28;20050;-48
2022/09/04 15:29:57;;;;;;;2.13;0.43;;;;;;;;;;5005315;28;20168;-50
2022/09/04 15:32:26;;;;;;;0.75;0.40;;;;;;;;;;5014380;28;20050;-48
2022/09/04 15:35:05;;;;;;;0.65;0.38;;;;;;;;;;5014108;28;20057;-48
2022/09/04 15:37:31;;;;;;;3.80;0.30;;;;;;;;;;5013815;28;20498;-52
2022/09/04 15:40:02;;;;;;;0.80;0.35;;;;;;;;;;5006710;28;20054;-48
2022/09/04 15:42:38;;;;;;;0.85;0.47;;;;;;;;;;4994617;28;20112;-50